Nearby METAR Reports


 

CYOO - Oshawa, Municipal Airport, Ontario, Canada
Distance from station: NW 3.2km
Updated: 08/02/2023 14:00
Clear
Clear
 Wind from SW
Wind: SW 13 km/h
Temperature: 5°C
Wind Chill: 2°C
Dew Point: -2°C
Humidity: 61%
Barometer: 1022.7 hPa
Clouds: Clear
Visibility: 14 km
2023/02/08 19:00 CYOO 081900Z AUTO 22007KT 9SM CLR 05/M02 A3020 RMK SLP235
CYKZ - Toronto, Buttonville, Municipal Airport, Ontario, Canada
Distance from station: W 39.75km
Updated: 03/01/2019 04:00
NOT Current
Partly cloudy
Partly cloudy
 Wind from WSW
Wind: WSW 7 km/h
Temperature: -3°C
Wind Chill: -6°C
Dew Point: -5°C
Humidity: 86%
Barometer: 1010.8 hPa
Clouds: Partly cloudy
Visibility: 24 km
Cloud details: Partly cloudy 1219 m
2019/01/03 09:00 CYKZ 030900Z 25004KT 15SM SCT040 M03/M05 A2985 RMK SC3 LAST STFD OBS FAREWELL SLP118
 
CXTO - Toronto City, Buttonville, Ontario, Canada
Distance from station: WSW 49km
Updated: 08/02/2023 14:00

 
Temperature: 6°C
Dew Point: -2°C
Humidity: 57%
2023/02/08 19:00 CXTO 081900Z AUTO 06/M02 RMK AO1 SLP237 T00601021 58014
CYTZ - Toronto City, Island Airport, Ontario, Canada
Distance from station: SW 51.7km
Updated: 08/02/2023 14:00
Clear
Clear
 Wind from SSW
Wind: SSW 19 km/h
Temperature: 5°C
Wind Chill: 1°C
Dew Point: 1°C
Humidity: 76%
Barometer: 1023.7 hPa
Clouds: Clear
Visibility: 14 km
2023/02/08 19:00 CYTZ 081900Z AUTO 20010KT 9SM CLR 05/01 A3023 RMK SLP240
 
CYPQ - Toronto, Peterborough Airport, Ontario, Canada
Distance from station: NE 54km
Updated: 08/02/2023 14:00
Clear
Clear
 Wind from W
Wind: W 24 km/h
Temperature: 4°C
Wind Chill: -1°C
Dew Point: -2°C
Humidity: 65%
Barometer: 1022 hPa
Clouds: Clear
Visibility: 14 km
2023/02/08 19:00 CYPQ 081900Z AUTO 27013KT 9SM CLR 04/M02 A3018 RMK SLP229
CWNC - Cobourg, (mars), Ontario, Canada
Distance from station: E 57km
Updated: 08/02/2023 14:00

 Wind from W
Wind: W 26 km/h
Temperature: 3°C
Wind Chill: -2°C
Dew Point: 0°C
Humidity: 81%
2023/02/08 19:00 CWNC 081900Z AUTO 26014KT 03/00 RMK AO1 SOG 02 8006 PK WND 26018/1839 SLP232 T00250000
 
CYYZ - Toronto, Lester Pearson Airport, Ontario, Canada
Distance from station: W 65.5km
Updated: 08/02/2023 14:00
Few Clouds
Few Clouds
 Wind from W
Wind: W 19 km/h
Temperature: 7°C
Wind Chill: 4°C
Dew Point: -2°C
Humidity: 53%
Barometer: 1023 hPa
Clouds: Few Clouds
Visibility: 24 km
Cloud details: Few Clouds 7620 m
2023/02/08 19:00 CYYZ 081900Z 26010KT 15SM FEW250 07/M02 A3021 RMK CI2 SLP239
CWGL - Lagoon City, Ontario, Canada
Distance from station: NNW 74km
Updated: 08/02/2023 14:00

 Wind from W
Wind: W 6 km/h
Temperature: 2°C
Dew Point: -2°C
Humidity: 75%
2023/02/08 19:00 CWGL 081900Z AUTO 27003KT 02/M02 RMK AO1 SLP217 T00161016 56012
 
CWWZ - Port Weller Airport, Ontario, Canada
Distance from station: SSW 77km
Updated: 08/02/2023 14:00

 Wind from W
Wind: W 15 km/h
Temperature: 6°C
Wind Chill: 3°C
Dew Point: 1°C
Humidity: 71%
2023/02/08 19:00 CWWZ 081900Z AUTO 26008KT 06/01 RMK AO1 SLP242 T00620010 58016
CYSN - St.Catharines Niagara Airport, Ontario, Canada
Distance from station: SSW 81km
Updated: 08/02/2023 14:00
Partly cloudy
Partly cloudy
 Wind from SW
Wind: SW 20 km/h
Temperature: 8°C
Wind Chill: 4°C
Dew Point: -1°C
Humidity: 53%
Barometer: 1023.7 hPa
Clouds: Partly cloudy
Visibility: 24 km
Cloud details: Few Clouds 975 m
Partly cloudy 6096 m
2023/02/08 19:00 CYSN 081900Z 23011KT 15SM FEW032 SCT200 08/M01 A3023 RMK CF1CI2 SLP242
This data is offered only as a general guide to local weather conditions. It should not be relied upon in lieu of officially disseminated weather information for determining possible risk to persons or property. This site, including all information contained therein, is made available as is without warranties of any kind, either express or implied. The Vicarage Weather Feed© includes links to other sites for user convenience only. The content of any linked third-party site is not controlled by The Vicarage Weather Feed©. Access to any third-party website through The Vicarage Weather Feed©, regardless of whether or not the third-party site is a linked site, is entirely at the users own risk. Externally sourced content or material is excluded from The Vicarage Weather Feed© copyright and is the copyright and property of the respective provider. Skywarn® and the Skywarn® logo are registered trademarks of the National Oceanic and Atmospheric Administration, used with permission.